Time;durP1;ratioP1;P1;durP2;ratioP2;P2;SDS_P1;SDS_P2;PMS_P1;PMS_P2;Temp;Humidity;BMP_temperature;BMP_pressure;BME280_temperature;BME280_humidity;BME280_pressure;Samples;Min_cycle;Max_cycle;Signal;HPM_P1;HPM_P2
2021/01/14 14:25:56;;;;;;;4.75;1.63;;;;;;;14.77;29.99;100722.16;5082499;27;20407;-67
2021/01/14 14:28:21;;;;;;;4.38;1.70;;;;;;;11.02;34.82;100711.19;5002167;28;20039;-68
2021/01/14 14:30:46;;;;;;;6.47;1.80;;;;;;;8.46;39.11;100707.47;5016539;28;20041;-70
2021/01/14 14:33:12;;;;;;;7.13;2.03;;;;;;;7.13;42.42;100700.25;5040133;28;20026;-70
2021/01/14 14:35:38;;;;;;;5.90;1.80;;;;;;;6.27;44.10;100705.31;5046780;28;20577;-70
2021/01/14 14:38:04;;;;;;;4.45;2.28;;;;;;;5.55;46.51;100710.75;5037887;28;20026;-70
2021/01/14 14:40:29;;;;;;;7.63;1.98;;;;;;;5.05;48.77;100705.69;5017393;28;20057;-69
2021/01/14 14:42:54;;;;;;;5.65;2.20;;;;;;;4.76;48.40;100699.91;5023289;28;20025;-71
2021/01/14 14:45:20;;;;;;;5.07;2.28;;;;;;;4.62;49.92;100706.16;5012231;28;20065;-69
2021/01/14 14:47:45;;;;;;;4.50;1.90;;;;;;;4.46;49.34;100711.66;5018043;28;20046;-68
2021/01/14 14:50:11;;;;;;;3.83;1.83;;;;;;;4.30;51.67;100708.41;5019489;28;20033;-68
2021/01/14 14:52:36;;;;;;;6.32;2.20;;;;;;;4.14;51.22;100705.19;5023481;28;20053;-69
2021/01/14 14:55:02;;;;;;;4.53;2.22;;;;;;;4.06;52.75;100713.56;5021142;28;20109;-69
2021/01/14 14:57:28;;;;;;;6.07;2.00;;;;;;;3.98;51.92;100701.03;5012033;28;20028;-68
2021/01/14 14:59:53;;;;;;;4.53;1.90;;;;;;;3.96;51.30;100707.31;5004672;28;20022;-66
2021/01/14 15:02:18;;;;;;;4.53;1.50;;;;;;;3.91;51.83;100710.22;5035126;28;20076;-67
2021/01/14 15:04:43;;;;;;;2.20;1.73;;;;;;;3.88;52.13;100709.59;5039700;28;20054;-68
2021/01/14 15:07:11;;;;;;;6.53;1.83;;;;;;;3.90;51.66;100713.78;5026009;28;20974;-68
2021/01/14 15:09:36;;;;;;;2.90;1.50;;;;;;;3.84;52.51;100708.97;5021111;28;20021;-67
2021/01/14 15:12:02;;;;;;;2.25;1.20;;;;;;;3.82;52.71;100710.84;5015744;28;20020;-67
2021/01/14 15:14:27;;;;;;;2.88;1.20;;;;;;;3.74;56.51;100710.50;5009929;28;20021;-69
2021/01/14 15:16:52;;;;;;;4.60;1.50;;;;;;;3.63;58.49;100713.88;5021269;28;20399;-69
2021/01/14 15:19:17;;;;;;;5.40;2.40;;;;;;;3.49;59.03;100722.63;5014552;28;20116;-67
2021/01/14 15:21:43;;;;;;;4.00;2.00;;;;;;;3.45;58.67;100726.38;5015023;28;20670;-68
2021/01/14 15:24:08;;;;;;;4.80;2.20;;;;;;;3.38;59.92;100725.09;5012535;28;20038;-68
2021/01/14 15:26:34;;;;;;;3.97;1.83;;;;;;;3.36;57.06;100719.13;5021096;28;20017;-68
2021/01/14 15:28:59;;;;;;;5.28;2.03;;;;;;;3.33;55.82;100717.56;5026520;28;20021;-68
2021/01/14 15:31:24;;;;;;;4.10;1.40;;;;;;;3.38;54.66;100719.88;5037923;28;20048;-68
2021/01/14 15:33:53;;;;;;;2.47;1.00;;;;;;;3.36;55.63;100734.81;5050181;28;20025;-68
2021/01/14 15:36:18;;;;;;;0.95;0.70;;;;;;;3.31;55.30;100727.28;5049368;28;20029;-68
2021/01/14 15:38:45;;;;;;;1.73;1.00;;;;;;;3.29;55.21;100731.78;5039060;28;20018;-67
2021/01/14 15:41:10;;;;;;;2.40;1.00;;;;;;;3.25;55.80;100732.06;5039453;28;20029;-68
2021/01/14 15:43:36;;;;;;;0.98;0.77;;;;;;;3.21;57.17;100728.81;5035436;28;20021;-67
2021/01/14 15:46:01;;;;;;;2.22;0.88;;;;;;;3.17;58.21;100732.56;5028215;28;20032;-69
2021/01/14 15:48:26;;;;;;;1.60;0.70;;;;;;;3.11;60.21;100732.97;5024664;28;20013;-68
2021/01/14 15:50:51;;;;;;;2.13;1.10;;;;;;;3.11;57.44;100722.50;5025260;28;20037;-68
2021/01/14 15:53:17;;;;;;;2.20;1.00;;;;;;;3.07;56.62;100729.69;5023646;28;20120;-67
2021/01/14 15:55:42;;;;;;;2.13;1.02;;;;;;;3.08;56.12;100727.94;5030200;28;20022;-68
2021/01/14 15:58:07;;;;;;;1.42;0.93;;;;;;;3.02;57.31;100734.38;5018981;28;20503;-67
2021/01/14 16:00:33;;;;;;;2.45;1.13;;;;;;;2.96;60.63;100734.78;5034112;28;20022;-69
2021/01/14 16:02:58;;;;;;;4.97;1.98;;;;;;;2.94;60.28;100736.66;5031350;28;20033;-68
2021/01/14 16:05:23;;;;;;;4.72;1.80;;;;;;;2.86;61.63;100733.69;5016933;28;20040;-68
2021/01/14 16:07:49;;;;;;;6.38;2.13;;;;;;;2.85;59.72;100732.84;4990209;28;20401;-68
2021/01/14 16:10:14;;;;;;;3.47;1.30;;;;;;;2.77;58.50;100724.66;4995568;28;20034;-67
2021/01/14 16:12:39;;;;;;;4.88;1.33;;;;;;;2.75;60.88;100734.38;4998262;28;20056;-71
2021/01/14 16:15:06;;;;;;;3.75;1.70;;;;;;;2.72;60.61;100732.78;5002578;28;20388;-73
